Terminal Aerodrome Forecast
Issued by NWS

Home | Current Version | Previous Version | Text Only | Print | Product List | Glossary On
Versions: 1 2 3 4 5 6 7 8 9 10 11 12 13 14 15 16 17 18 19 20 21 22 23 24 25 26 27 28
000
FTUS45 KPSR 010100 AAA
TAFPHX
TAF AMD
KPHX 010147Z 0102/0124 31010G15KT P6SM SCT150 BKN250
     FM010230 33015G25KT P6SM SCT150 BKN250
     FM010400 30010KT P6SM SCT150 BKN250
     FM010900 12006KT P6SM BKN250=

USA.gov is the U.S. government's official web portal to all federal, state and local government web resources and services.